createdAt,value
2022-12-14T00:04:54.824Z,8.85
2022-12-14T00:09:56.872Z,11.12
2022-12-14T00:14:59.642Z,10.85
2022-12-14T00:20:01.748Z,10.70
2022-12-14T00:25:04.262Z,11.65
2022-12-14T00:30:07.022Z,10.23
2022-12-14T00:35:14.834Z,11.17
2022-12-14T00:40:17.165Z,9.60
2022-12-14T00:45:19.260Z,10.87
2022-12-14T00:50:21.374Z,10.05
2022-12-14T00:55:23.491Z,9.98
2022-12-14T01:05:28.135Z,8.77
2022-12-14T01:10:30.237Z,10.77
2022-12-14T01:15:35.136Z,9.73
2022-12-14T01:20:37.452Z,8.13
2022-12-14T01:30:41.519Z,9.17
2022-12-14T01:35:43.554Z,8.73
2022-12-14T01:40:45.623Z,10.48
2022-12-14T01:45:48.725Z,9.90
2022-12-14T01:55:55.438Z,9.73
2022-12-14T02:01:00.202Z,8.40
2022-12-14T02:06:10.550Z,9.53
2022-12-14T02:11:12.779Z,9.17
2022-12-14T02:21:52.478Z,9.07
2022-12-14T02:27:18.970Z,8.00
2022-12-14T02:32:44.574Z,8.37
2022-12-14T02:37:57.211Z,8.73
2022-12-14T02:48:36.273Z,8.63
2022-12-14T02:54:11.884Z,7.83
2022-12-14T02:59:16.012Z,8.70
2022-12-14T03:04:18.139Z,7.67
2022-12-14T03:09:20.379Z,8.77
2022-12-14T03:14:39.886Z,8.23
2022-12-14T03:19:48.876Z,8.27
2022-12-14T03:25:00.692Z,7.80
2022-12-14T03:30:13.645Z,7.73
2022-12-14T03:35:18.145Z,7.23
2022-12-14T03:40:28.832Z,8.00
2022-12-14T03:45:44.971Z,8.20
2022-12-14T03:51:11.421Z,9.03
2022-12-14T03:56:16.266Z,8.00
2022-12-14T04:01:38.697Z,8.33
2022-12-14T04:06:53.925Z,7.95
2022-12-14T04:12:50.968Z,7.07
2022-12-14T04:18:30.993Z,8.03
2022-12-14T04:24:04.939Z,7.53
2022-12-14T04:29:30.375Z,6.27
2022-12-14T04:34:35.592Z,7.23
2022-12-14T04:39:41.403Z,7.73
2022-12-14T04:44:49.210Z,7.73
2022-12-14T04:50:01.596Z,8.77
2022-12-14T04:55:04.086Z,8.05
2022-12-14T05:00:06.875Z,10.07
2022-12-14T05:05:23.398Z,8.25
2022-12-14T05:10:45.389Z,9.75
2022-12-14T05:15:51.518Z,8.20
2022-12-14T05:20:53.618Z,8.33
2022-12-14T05:25:55.751Z,9.20
2022-12-14T05:30:57.985Z,10.57
2022-12-14T05:41:02.355Z,9.87
2022-12-14T05:51:08.020Z,9.37
2022-12-14T05:56:11.278Z,10.37
2022-12-14T06:01:18.833Z,9.17
2022-12-14T06:06:21.734Z,9.87
2022-12-14T06:11:24.373Z,9.98
2022-12-14T06:16:26.625Z,9.70
2022-12-14T06:26:36.778Z,9.77
2022-12-14T06:31:38.849Z,10.55
2022-12-14T06:36:42.745Z,9.98
2022-12-14T06:41:50.533Z,8.43
2022-12-14T06:46:52.645Z,7.63
2022-12-14T06:56:57.020Z,8.63
2022-12-14T07:01:59.209Z,8.52
2022-12-14T07:07:01.596Z,7.87
2022-12-14T07:12:04.153Z,7.43
2022-12-14T07:17:06.254Z,7.70
2022-12-14T07:22:08.387Z,7.95
2022-12-14T07:27:10.491Z,7.78
2022-12-14T07:32:12.858Z,8.48
2022-12-14T07:37:15.358Z,8.07
2022-12-14T07:42:17.504Z,9.10
2022-12-14T07:47:21.721Z,7.83
2022-12-14T07:52:23.815Z,8.35
2022-12-14T07:57:25.998Z,7.95
2022-12-14T08:07:31.589Z,9.37
2022-12-14T08:12:33.685Z,10.80
2022-12-14T08:17:35.779Z,10.57
2022-12-14T08:22:37.837Z,10.05
2022-12-14T08:27:39.923Z,10.52
2022-12-14T08:32:42.051Z,10.50
2022-12-14T08:37:47.482Z,11.30
2022-12-14T08:42:50.633Z,12.10
2022-12-14T08:47:52.785Z,12.60
2022-12-14T08:52:55.611Z,12.55
2022-12-14T08:57:58.257Z,13.33
2022-12-14T09:03:00.887Z,12.53
2022-12-14T09:08:03.277Z,12.77
2022-12-14T09:13:05.336Z,11.43
2022-12-14T09:18:07.597Z,12.35
2022-12-14T09:23:09.667Z,10.48
2022-12-14T09:28:11.732Z,12.52
2022-12-14T09:33:13.870Z,11.55
2022-12-14T09:38:15.946Z,11.60
2022-12-14T09:43:37.959Z,12.32
2022-12-14T09:48:42.668Z,11.93
2022-12-14T09:53:50.258Z,11.70
2022-12-14T09:58:59.177Z,13.00
2022-12-14T10:04:19.396Z,11.50
2022-12-14T10:10:01.730Z,14.00
2022-12-14T10:15:45.478Z,13.30
2022-12-14T10:20:53.465Z,13.50
2022-12-14T10:26:02.834Z,14.50
2022-12-14T10:31:09.610Z,14.05
2022-12-14T10:36:18.415Z,14.60
2022-12-14T10:41:49.620Z,14.90
2022-12-14T10:47:01.815Z,14.10
2022-12-14T10:52:12.331Z,14.13
2022-12-14T10:57:23.280Z,16.50
2022-12-14T11:02:29.324Z,15.63
2022-12-14T11:07:34.762Z,14.33
2022-12-14T11:12:38.273Z,13.45
2022-12-14T11:17:43.247Z,14.15
2022-12-14T11:22:55.219Z,14.80
2022-12-14T11:28:01.525Z,14.63
2022-12-14T11:33:03.948Z,13.10
2022-12-14T11:38:06.249Z,15.90
2022-12-14T11:48:24.209Z,14.40
2022-12-14T11:53:26.295Z,16.00
2022-12-14T11:58:33.373Z,15.40
2022-12-14T12:03:58.552Z,15.20
2022-12-14T12:09:03.124Z,14.93
2022-12-14T12:14:34.764Z,14.40
2022-12-14T12:19:38.550Z,14.75
2022-12-14T12:25:24.363Z,14.60
2022-12-14T12:30:28.677Z,15.40
2022-12-14T12:36:04.856Z,16.52
2022-12-14T12:41:41.645Z,15.07
2022-12-14T12:47:23.966Z,15.15
2022-12-14T12:52:28.661Z,13.55
2022-12-14T12:57:38.406Z,13.80
2022-12-14T13:02:50.334Z,15.00
2022-12-14T13:08:06.956Z,14.13
2022-12-14T13:13:26.973Z,15.85
2022-12-14T13:24:00.158Z,12.40
2022-12-14T13:29:05.704Z,13.43
2022-12-14T13:34:13.644Z,13.30
2022-12-14T13:39:33.467Z,12.60
2022-12-14T13:44:57.246Z,13.05
2022-12-14T13:55:35.617Z,11.35
2022-12-14T14:00:57.501Z,11.67
2022-12-14T14:06:11.941Z,12.40
2022-12-14T14:11:36.308Z,12.15
2022-12-14T14:16:47.369Z,11.25
2022-12-14T14:22:22.851Z,13.10
2022-12-14T14:27:42.050Z,11.95
2022-12-14T14:32:44.870Z,11.23
2022-12-14T14:38:17.607Z,12.27
2022-12-14T14:43:25.536Z,11.07
2022-12-14T14:48:36.361Z,10.20
2022-12-14T14:53:39.884Z,12.23
2022-12-14T14:58:42.589Z,12.20
2022-12-14T15:03:45.007Z,10.95
2022-12-14T15:14:06.724Z,11.10
2022-12-14T15:19:38.432Z,11.05
2022-12-14T15:24:44.645Z,11.10
2022-12-14T15:29:49.311Z,10.57
2022-12-14T15:34:58.478Z,14.23
2022-12-14T15:40:04.921Z,10.50
2022-12-14T15:45:14.364Z,10.80
2022-12-14T15:50:22.185Z,11.05
2022-12-14T15:55:34.547Z,11.80
2022-12-14T16:00:42.489Z,11.20
2022-12-14T16:05:45.628Z,10.75
2022-12-14T16:10:53.064Z,9.45
2022-12-14T16:15:57.777Z,8.95
2022-12-14T16:21:02.218Z,9.35
2022-12-14T16:26:23.480Z,9.03
2022-12-14T16:31:27.428Z,9.85
2022-12-14T16:36:32.260Z,10.37
2022-12-14T16:41:44.355Z,9.25
2022-12-14T16:47:04.691Z,9.27
2022-12-14T16:52:09.970Z,9.27
2022-12-14T16:57:18.996Z,9.40
2022-12-14T17:02:24.139Z,8.90
2022-12-14T17:07:30.037Z,8.80
2022-12-14T17:12:32.412Z,10.57
2022-12-14T17:17:36.336Z,11.30
2022-12-14T17:22:38.620Z,10.33
2022-12-14T17:32:44.331Z,9.90
2022-12-14T17:37:46.742Z,10.00
2022-12-14T17:42:57.401Z,9.80
2022-12-14T17:47:59.528Z,10.00
2022-12-14T17:53:01.605Z,10.27
2022-12-14T18:03:06.686Z,9.47
2022-12-14T18:08:09.856Z,12.53
2022-12-14T18:13:13.357Z,15.67
2022-12-14T18:18:15.484Z,12.37
2022-12-14T18:23:19.293Z,10.50
2022-12-14T18:28:22.207Z,9.90
2022-12-14T18:33:26.915Z,10.93
2022-12-14T18:38:29.282Z,10.83
2022-12-14T18:43:32.445Z,9.35
2022-12-14T18:48:34.963Z,10.50
2022-12-14T18:53:37.119Z,10.27
2022-12-14T18:58:42.036Z,11.60
2022-12-14T19:03:45.201Z,9.57
2022-12-14T19:08:47.443Z,11.83
2022-12-14T19:13:51.749Z,9.27
2022-12-14T19:18:53.915Z,9.23
2022-12-14T19:23:56.250Z,9.02
2022-12-14T19:28:58.948Z,10.10
2022-12-14T19:34:01.035Z,9.70
2022-12-14T19:39:03.276Z,11.23
2022-12-14T19:49:09.328Z,11.37
2022-12-14T19:54:11.941Z,11.20
2022-12-14T19:59:14.148Z,10.17
2022-12-14T20:09:19.045Z,9.00
2022-12-14T20:14:21.137Z,10.53
2022-12-14T20:19:23.538Z,10.15
2022-12-14T20:24:25.651Z,10.10
2022-12-14T20:29:28.515Z,10.87
2022-12-14T20:34:30.855Z,11.47
2022-12-14T20:39:32.952Z,10.80
2022-12-14T20:44:35.108Z,11.32
2022-12-14T20:54:41.050Z,11.10
2022-12-14T21:04:45.309Z,10.83
2022-12-14T21:09:47.811Z,12.30
2022-12-14T21:14:54.653Z,11.67
2022-12-14T21:19:57.604Z,11.70
2022-12-14T21:25:03.774Z,12.83
2022-12-14T21:30:11.260Z,13.37
2022-12-14T21:35:17.545Z,13.07
2022-12-14T21:40:39.847Z,13.80
2022-12-14T21:45:41.979Z,12.60
2022-12-14T22:00:52.799Z,12.93
2022-12-14T22:11:02.521Z,10.87
2022-12-14T22:16:07.556Z,13.77
2022-12-14T22:21:09.955Z,12.23
2022-12-14T22:26:12.251Z,12.90
2022-12-14T22:31:14.334Z,14.27
2022-12-14T22:41:20.393Z,12.33
2022-12-14T22:46:24.266Z,12.50
2022-12-14T22:51:29.067Z,11.83
2022-12-14T22:56:41.558Z,11.83
2022-12-14T23:01:49.676Z,11.25
2022-12-14T23:06:54.091Z,10.40
2022-12-14T23:12:19.678Z,11.67
2022-12-14T23:17:42.706Z,11.70
2022-12-14T23:23:03.374Z,11.63
2022-12-14T23:28:24.322Z,11.57
2022-12-14T23:33:45.698Z,12.57
2022-12-14T23:39:06.423Z,12.20
2022-12-14T23:44:27.211Z,12.03
2022-12-14T23:49:48.074Z,12.80
2022-12-14T23:55:08.782Z,12.67
